»·PEaware :: N796A KSBA-KCRQ

N796A :: KSBA-KCRQ

FLIGHT INFORMATION

Flight Status: Arrived
Operator: Privately registered:
United States
More flights under this callsign
Pilot: Matt G. (13672)
Aircraft: CESSNA 340
(C340)
More flights by this aircraft type
Origin: KSBA Santa Barbara Mun
United States
Destination: KCRQ McClellan-Palomar
United States
More flights between these airports :: More routes between these airports
Route: HENER V186 DARTS V597 OCN
File this flight plan on PilotEdge
Remarks: SBAP24 TEC Route
Altitude:
(Current/Filed)
9,000ft
Speed:
(Current/Filed)
240kts
Departed: 02-Sep-18 11:19 AM
Arrived: 02-Sep-18 12:18 PM
Distance/Time
Traveled:
150nm/0:59
Distance/Time
To Go:
Arrived

Flight Plot

Page will automatically refresh every two minutes.


Map Options




Map Legend


Flown Route
Filed Route
Departure Airport
Arrival Airport
Navaid (VOR, NDB)
Fix

Horizontal Profiles

Position Reports

Time Latitude Longitude Heading Altitude Ground
Speed
02-Sep-18 11:13 34.432161 -119.838000 69 16ft 0kts
02-Sep-18 11:14 34.432161 -119.838000 69 16ft 0kts
02-Sep-18 11:15 34.432161 -119.838000 69 16ft 0kts
02-Sep-18 11:16 34.432161 -119.838000 69 16ft 0kts
02-Sep-18 11:18 34.432161 -119.838000 69 16ft 0kts
02-Sep-18 11:19 34.431705 -119.837698 160 16ft 0kts
02-Sep-18 11:20 34.430697 -119.839689 247 16ft 0kts
02-Sep-18 11:21 34.422056 -119.837686 166 64ft 103kts
02-Sep-18 11:22 34.394041 -119.829570 166 1545ft 103kts
02-Sep-18 11:23 34.365511 -119.821313 155 2881ft 113kts
02-Sep-18 11:24 34.357665 -119.786441 92 4325ft 115kts
02-Sep-18 11:25 34.355998 -119.748211 91 5724ft 112kts
02-Sep-18 11:26 34.354237 -119.711579 91 6807ft 108kts
02-Sep-18 11:27 34.352591 -119.675447 91 7661ft 119kts
02-Sep-18 11:28 34.350698 -119.634777 91 8621ft 122kts
02-Sep-18 11:29 34.348566 -119.589435 92 9020ft 161kts
02-Sep-18 11:30 34.345789 -119.532670 91 9006ft 184kts
02-Sep-18 11:31 34.342878 -119.470535 91 9002ft 190kts
02-Sep-18 11:32 34.339828 -119.406628 91 9000ft 192kts
02-Sep-18 11:33 34.336954 -119.347353 92 8998ft 192kts
02-Sep-18 11:34 34.333825 -119.283535 92 8997ft 193kts
02-Sep-18 11:35 34.331613 -119.219757 82 8996ft 192kts
02-Sep-18 11:36 34.336461 -119.155430 83 8996ft 193kts
02-Sep-18 11:37 34.341251 -119.091134 83 8996ft 193kts
02-Sep-18 11:38 34.346006 -119.026854 83 8997ft 193kts
02-Sep-18 11:39 34.350727 -118.962435 83 8989ft 193kts
02-Sep-18 11:40 34.355447 -118.897693 83 8987ft 192kts
02-Sep-18 11:41 34.342348 -118.839430 112 8986ft 187kts
02-Sep-18 11:42 34.322707 -118.781231 113 8987ft 186kts
02-Sep-18 11:43 34.302859 -118.723069 110 8991ft 189kts
02-Sep-18 11:44 34.282830 -118.664589 110 8992ft 189kts
02-Sep-18 11:45 34.262786 -118.606088 110 8994ft 188kts
02-Sep-18 11:46 34.242863 -118.548019 110 8996ft 187kts
02-Sep-18 11:47 34.222989 -118.490206 111 8998ft 186kts
02-Sep-18 11:48 34.206462 -118.436274 108 9000ft 185kts
02-Sep-18 11:49 34.189005 -118.377880 109 9002ft 185kts
02-Sep-18 11:50 34.172321 -118.322933 110 9006ft 185kts
02-Sep-18 11:51 34.152401 -118.269379 136 9008ft 186kts
02-Sep-18 11:51 34.115751 -118.246252 152 9005ft 189kts
02-Sep-18 11:53 34.061296 -118.214705 152 9004ft 190kts
02-Sep-18 11:54 34.014123 -118.187479 152 8999ft 190kts
02-Sep-18 11:55 33.966952 -118.160278 152 8993ft 191kts
02-Sep-18 11:55 33.928198 -118.137957 152 8987ft 191kts
02-Sep-18 11:56 33.882176 -118.111480 152 8986ft 191kts
02-Sep-18 11:58 33.828634 -118.080705 152 8988ft 190kts
02-Sep-18 11:58 33.789347 -118.058117 152 8990ft 189kts
02-Sep-18 11:59 33.751391 -118.016827 134 8992ft 186kts
02-Sep-18 12:01 33.708965 -117.966678 134 8992ft 185kts
02-Sep-18 12:01 33.678502 -117.930663 134 8992ft 185kts
02-Sep-18 12:02 33.641901 -117.887532 134 8992ft 185kts
02-Sep-18 12:03 33.605948 -117.845078 134 8992ft 184kts
02-Sep-18 12:04 33.569375 -117.802105 134 8992ft 184kts
02-Sep-18 12:05 33.532776 -117.759083 134 8992ft 184kts
02-Sep-18 12:06 33.496242 -117.716096 134 8991ft 184kts
02-Sep-18 12:07 33.459601 -117.673124 134 8991ft 184kts
02-Sep-18 12:08 33.422906 -117.630210 134 8991ft 184kts
02-Sep-18 12:09 33.386374 -117.587511 134 8991ft 184kts
02-Sep-18 12:10 33.350647 -117.545940 135 8565ft 188kts
02-Sep-18 12:11 33.314869 -117.504062 136 7798ft 188kts
02-Sep-18 12:12 33.277955 -117.461011 133 6912ft 182kts
02-Sep-18 12:13 33.242269 -117.419363 134 5989ft 178kts
02-Sep-18 12:14 33.218699 -117.368952 112 4951ft 179kts
02-Sep-18 12:15 33.198545 -117.314278 112 3580ft 189kts
02-Sep-18 12:16 33.177247 -117.259408 137 2235ft 178kts
02-Sep-18 12:17 33.140481 -117.247813 202 1274ft 107kts
02-Sep-18 12:18 33.128818 -117.276982 254 300ft 81kts
02-Sep-18 12:19 33.126392 -117.287591 116 298ft 7kts
02-Sep-18 12:20 33.126315 -117.287243 94 298ft 6kts
02-Sep-18 12:21 33.127219 -117.281471 77 298ft 14kts
02-Sep-18 12:22 33.128018 -117.276426 76 298ft 22kts
02-Sep-18 12:23 33.126685 -117.275174 76 298ft 0kts
02-Sep-18 12:24 33.126685 -117.275174 76 298ft 0kts
02-Sep-18 12:25 33.126685 -117.275174 76 298ft 0kts
02-Sep-18 12:26 33.126685 -117.275175 76 298ft 0kts
02-Sep-18 12:27 33.126685 -117.275175 76 298ft 0kts
02-Sep-18 12:28 33.126685 -117.275175 76 298ft 0kts
02-Sep-18 12:29 33.126685 -117.275175 76 298ft 0kts
02-Sep-18 12:30 33.126685 -117.275174 76 298ft 0kts
02-Sep-18 12:31 33.126694 -117.275130 76 298ft 0kts
02-Sep-18 12:32 33.126694 -117.275130 76 298ft 0kts
02-Sep-18 12:33 33.127871 -117.275072 349 298ft 17kts
02-Sep-18 12:34 33.128855 -117.272556 48 298ft 13kts

Navigation Log

Ident Type
1. KSBA Airport
2. HENER Fix
3. FIM Navaid
4. SESPE Fix
5. VNY Navaid
6. DARTS Fix
7. DODGR Fix
8. SLI Navaid
9. MIDDS Fix
10. BALBO Fix
11. KRAUZ Fix
12. DANAH Fix
13. KELPS Fix
14. OCN Navaid
15. KCRQ Airport